sensor_id;sensor_type;location;lat;lon;timestamp;P1;durP1;ratioP1;P2;durP2;ratioP2
4096;SDS011;2062;50.694;7.246;2023-06-19T00:00:16;7.45;;;5.07;;
4096;SDS011;2062;50.694;7.246;2023-06-19T00:02:43;10.60;;;5.32;;
4096;SDS011;2062;50.694;7.246;2023-06-19T00:05:11;8.10;;;5.13;;
4096;SDS011;2062;50.694;7.246;2023-06-19T00:07:39;7.87;;;4.93;;
4096;SDS011;2062;50.694;7.246;2023-06-19T00:10:06;7.75;;;4.95;;
4096;SDS011;2062;50.694;7.246;2023-06-19T00:12:33;8.35;;;5.18;;
4096;SDS011;2062;50.694;7.246;2023-06-19T00:14:59;9.23;;;5.40;;
4096;SDS011;2062;50.694;7.246;2023-06-19T00:17:27;7.40;;;4.60;;
4096;SDS011;2062;50.694;7.246;2023-06-19T00:19:54;8.30;;;5.17;;
4096;SDS011;2062;50.694;7.246;2023-06-19T00:22:22;8.73;;;5.30;;
4096;SDS011;2062;50.694;7.246;2023-06-19T00:24:49;8.43;;;4.72;;
4096;SDS011;2062;50.694;7.246;2023-06-19T00:27:16;7.47;;;4.40;;
4096;SDS011;2062;50.694;7.246;2023-06-19T00:29:43;9.07;;;5.30;;
4096;SDS011;2062;50.694;7.246;2023-06-19T00:32:10;7.97;;;5.03;;
4096;SDS011;2062;50.694;7.246;2023-06-19T00:34:37;9.48;;;5.30;;
4096;SDS011;2062;50.694;7.246;2023-06-19T00:37:04;8.18;;;4.88;;
4096;SDS011;2062;50.694;7.246;2023-06-19T00:39:32;8.05;;;4.95;;
4096;SDS011;2062;50.694;7.246;2023-06-19T00:41:59;7.13;;;4.65;;
4096;SDS011;2062;50.694;7.246;2023-06-19T00:44:26;7.33;;;4.60;;
4096;SDS011;2062;50.694;7.246;2023-06-19T00:46:55;8.15;;;5.18;;
4096;SDS011;2062;50.694;7.246;2023-06-19T00:49:23;8.00;;;5.45;;
4096;SDS011;2062;50.694;7.246;2023-06-19T00:51:51;7.97;;;5.22;;
4096;SDS011;2062;50.694;7.246;2023-06-19T00:54:18;7.65;;;4.65;;
4096;SDS011;2062;50.694;7.246;2023-06-19T00:56:47;8.93;;;5.10;;
4096;SDS011;2062;50.694;7.246;2023-06-19T00:59:15;7.93;;;5.13;;
4096;SDS011;2062;50.694;7.246;2023-06-19T01:01:43;8.25;;;4.95;;
4096;SDS011;2062;50.694;7.246;2023-06-19T01:04:11;8.13;;;5.40;;
4096;SDS011;2062;50.694;7.246;2023-06-19T01:06:40;8.07;;;5.30;;
4096;SDS011;2062;50.694;7.246;2023-06-19T01:09:13;7.23;;;4.67;;
4096;SDS011;2062;50.694;7.246;2023-06-19T01:11:43;8.15;;;5.03;;
4096;SDS011;2062;50.694;7.246;2023-06-19T01:14:15;8.23;;;5.10;;
4096;SDS011;2062;50.694;7.246;2023-06-19T01:16:45;8.70;;;4.88;;
4096;SDS011;2062;50.694;7.246;2023-06-19T01:19:15;8.65;;;5.10;;
4096;SDS011;2062;50.694;7.246;2023-06-19T01:21:44;7.77;;;4.93;;
4096;SDS011;2062;50.694;7.246;2023-06-19T01:24:13;8.60;;;5.50;;
4096;SDS011;2062;50.694;7.246;2023-06-19T01:26:40;9.07;;;5.00;;
4096;SDS011;2062;50.694;7.246;2023-06-19T01:29:10;8.38;;;5.18;;
4096;SDS011;2062;50.694;7.246;2023-06-19T01:31:41;7.70;;;5.18;;
4096;SDS011;2062;50.694;7.246;2023-06-19T01:34:11;8.53;;;5.50;;
4096;SDS011;2062;50.694;7.246;2023-06-19T01:36:40;8.25;;;4.72;;
4096;SDS011;2062;50.694;7.246;2023-06-19T01:39:07;8.27;;;5.22;;
4096;SDS011;2062;50.694;7.246;2023-06-19T01:41:36;7.50;;;5.05;;
4096;SDS011;2062;50.694;7.246;2023-06-19T01:44:04;9.60;;;5.43;;
4096;SDS011;2062;50.694;7.246;2023-06-19T01:46:31;8.03;;;5.10;;
4096;SDS011;2062;50.694;7.246;2023-06-19T01:48:58;7.97;;;4.85;;
4096;SDS011;2062;50.694;7.246;2023-06-19T01:51:25;8.95;;;5.32;;
4096;SDS011;2062;50.694;7.246;2023-06-19T01:53:52;9.20;;;5.03;;
4096;SDS011;2062;50.694;7.246;2023-06-19T01:56:19;7.75;;;5.07;;
4096;SDS011;2062;50.694;7.246;2023-06-19T01:58:47;9.47;;;5.00;;
4096;SDS011;2062;50.694;7.246;2023-06-19T02:01:13;9.90;;;4.95;;
4096;SDS011;2062;50.694;7.246;2023-06-19T02:03:40;8.50;;;5.10;;
4096;SDS011;2062;50.694;7.246;2023-06-19T02:06:07;7.72;;;5.10;;
4096;SDS011;2062;50.694;7.246;2023-06-19T02:08:34;8.30;;;5.07;;
4096;SDS011;2062;50.694;7.246;2023-06-19T02:11:00;7.93;;;5.23;;
4096;SDS011;2062;50.694;7.246;2023-06-19T02:13:27;10.95;;;5.72;;
4096;SDS011;2062;50.694;7.246;2023-06-19T02:15:55;8.13;;;5.50;;
4096;SDS011;2062;50.694;7.246;2023-06-19T02:18:22;8.43;;;5.45;;
4096;SDS011;2062;50.694;7.246;2023-06-19T02:20:49;8.35;;;5.57;;
4096;SDS011;2062;50.694;7.246;2023-06-19T02:23:15;10.13;;;5.30;;
4096;SDS011;2062;50.694;7.246;2023-06-19T02:25:42;7.82;;;4.88;;
4096;SDS011;2062;50.694;7.246;2023-06-19T02:28:09;8.10;;;5.05;;
4096;SDS011;2062;50.694;7.246;2023-06-19T02:30:36;8.57;;;5.40;;
4096;SDS011;2062;50.694;7.246;2023-06-19T02:33:04;9.38;;;5.05;;
4096;SDS011;2062;50.694;7.246;2023-06-19T02:35:31;7.30;;;4.47;;
4096;SDS011;2062;50.694;7.246;2023-06-19T02:37:58;8.25;;;5.25;;
4096;SDS011;2062;50.694;7.246;2023-06-19T02:40:24;8.63;;;5.43;;
4096;SDS011;2062;50.694;7.246;2023-06-19T02:42:51;8.40;;;5.30;;
4096;SDS011;2062;50.694;7.246;2023-06-19T02:45:18;8.00;;;5.15;;
4096;SDS011;2062;50.694;7.246;2023-06-19T02:47:45;8.07;;;5.03;;
4096;SDS011;2062;50.694;7.246;2023-06-19T02:50:13;8.93;;;5.03;;
4096;SDS011;2062;50.694;7.246;2023-06-19T02:52:40;10.20;;;5.15;;
4096;SDS011;2062;50.694;7.246;2023-06-19T02:55:07;9.20;;;5.45;;
4096;SDS011;2062;50.694;7.246;2023-06-19T02:57:34;8.93;;;5.10;;
4096;SDS011;2062;50.694;7.246;2023-06-19T03:00:01;8.60;;;4.40;;
4096;SDS011;2062;50.694;7.246;2023-06-19T03:02:31;8.93;;;5.13;;
4096;SDS011;2062;50.694;7.246;2023-06-19T03:04:57;8.80;;;5.18;;
4096;SDS011;2062;50.694;7.246;2023-06-19T03:07:25;7.70;;;4.63;;
4096;SDS011;2062;50.694;7.246;2023-06-19T03:09:53;8.35;;;5.00;;
4096;SDS011;2062;50.694;7.246;2023-06-19T03:12:20;7.83;;;5.30;;
4096;SDS011;2062;50.694;7.246;2023-06-19T03:14:47;7.72;;;4.72;;
4096;SDS011;2062;50.694;7.246;2023-06-19T03:17:13;8.20;;;4.97;;
4096;SDS011;2062;50.694;7.246;2023-06-19T03:19:40;9.63;;;5.05;;
4096;SDS011;2062;50.694;7.246;2023-06-19T03:22:07;7.47;;;4.50;;
4096;SDS011;2062;50.694;7.246;2023-06-19T03:24:36;8.07;;;4.87;;
4096;SDS011;2062;50.694;7.246;2023-06-19T03:27:03;8.20;;;4.50;;
4096;SDS011;2062;50.694;7.246;2023-06-19T03:29:30;8.80;;;5.25;;
4096;SDS011;2062;50.694;7.246;2023-06-19T03:31:56;8.15;;;4.88;;
4096;SDS011;2062;50.694;7.246;2023-06-19T03:34:23;7.43;;;4.72;;
4096;SDS011;2062;50.694;7.246;2023-06-19T03:36:50;8.37;;;5.00;;
4096;SDS011;2062;50.694;7.246;2023-06-19T03:39:17;10.18;;;4.80;;
4096;SDS011;2062;50.694;7.246;2023-06-19T03:41:45;7.85;;;4.30;;
4096;SDS011;2062;50.694;7.246;2023-06-19T03:44:12;7.85;;;4.55;;
4096;SDS011;2062;50.694;7.246;2023-06-19T03:46:38;7.82;;;5.22;;
4096;SDS011;2062;50.694;7.246;2023-06-19T03:49:05;8.47;;;5.03;;
4096;SDS011;2062;50.694;7.246;2023-06-19T03:51:34;8.20;;;4.70;;
4096;SDS011;2062;50.694;7.246;2023-06-19T03:54:01;8.65;;;5.13;;
4096;SDS011;2062;50.694;7.246;2023-06-19T03:56:28;9.45;;;4.82;;
4096;SDS011;2062;50.694;7.246;2023-06-19T03:58:56;7.97;;;5.00;;
4096;SDS011;2062;50.694;7.246;2023-06-19T04:01:22;7.63;;;4.60;;
4096;SDS011;2062;50.694;7.246;2023-06-19T04:03:49;7.60;;;4.50;;
4096;SDS011;2062;50.694;7.246;2023-06-19T04:06:16;8.48;;;5.10;;
4096;SDS011;2062;50.694;7.246;2023-06-19T04:08:43;8.10;;;5.00;;
4096;SDS011;2062;50.694;7.246;2023-06-19T04:11:09;7.15;;;4.82;;
4096;SDS011;2062;50.694;7.246;2023-06-19T04:13:36;9.10;;;5.30;;
4096;SDS011;2062;50.694;7.246;2023-06-19T04:16:04;8.50;;;5.15;;
4096;SDS011;2062;50.694;7.246;2023-06-19T04:18:31;8.48;;;4.75;;
4096;SDS011;2062;50.694;7.246;2023-06-19T04:20:58;9.10;;;4.70;;
4096;SDS011;2062;50.694;7.246;2023-06-19T04:23:24;8.82;;;5.00;;
4096;SDS011;2062;50.694;7.246;2023-06-19T04:25:51;9.20;;;4.60;;
4096;SDS011;2062;50.694;7.246;2023-06-19T04:28:18;8.77;;;4.40;;
4096;SDS011;2062;50.694;7.246;2023-06-19T04:30:46;8.18;;;4.78;;
4096;SDS011;2062;50.694;7.246;2023-06-19T04:33:14;8.50;;;4.80;;
4096;SDS011;2062;50.694;7.246;2023-06-19T04:35:41;7.78;;;5.00;;
4096;SDS011;2062;50.694;7.246;2023-06-19T04:38:08;8.63;;;5.07;;
4096;SDS011;2062;50.694;7.246;2023-06-19T04:40:35;9.40;;;4.72;;
4096;SDS011;2062;50.694;7.246;2023-06-19T04:43:02;8.48;;;4.72;;
4096;SDS011;2062;50.694;7.246;2023-06-19T04:45:30;9.02;;;4.68;;
4096;SDS011;2062;50.694;7.246;2023-06-19T04:47:57;10.25;;;5.03;;
4096;SDS011;2062;50.694;7.246;2023-06-19T04:50:29;9.30;;;5.20;;
4096;SDS011;2062;50.694;7.246;2023-06-19T04:52:56;9.73;;;5.43;;
4096;SDS011;2062;50.694;7.246;2023-06-19T04:55:22;7.90;;;4.90;;
4096;SDS011;2062;50.694;7.246;2023-06-19T04:57:50;8.95;;;4.72;;
4096;SDS011;2062;50.694;7.246;2023-06-19T05:00:17;9.23;;;4.93;;
4096;SDS011;2062;50.694;7.246;2023-06-19T05:02:45;10.70;;;5.50;;
4096;SDS011;2062;50.694;7.246;2023-06-19T05:05:12;7.75;;;4.80;;
4096;SDS011;2062;50.694;7.246;2023-06-19T05:07:40;8.85;;;5.15;;
4096;SDS011;2062;50.694;7.246;2023-06-19T05:10:07;8.52;;;4.75;;
4096;SDS011;2062;50.694;7.246;2023-06-19T05:12:35;8.90;;;5.07;;
4096;SDS011;2062;50.694;7.246;2023-06-19T05:15:02;7.90;;;4.60;;
4096;SDS011;2062;50.694;7.246;2023-06-19T05:17:29;8.38;;;4.97;;
4096;SDS011;2062;50.694;7.246;2023-06-19T05:19:56;7.82;;;4.80;;
4096;SDS011;2062;50.694;7.246;2023-06-19T05:22:23;7.70;;;4.55;;
4096;SDS011;2062;50.694;7.246;2023-06-19T05:24:53;7.97;;;4.88;;
4096;SDS011;2062;50.694;7.246;2023-06-19T05:27:19;8.47;;;4.87;;
4096;SDS011;2062;50.694;7.246;2023-06-19T05:29:46;7.63;;;4.82;;
4096;SDS011;2062;50.694;7.246;2023-06-19T05:32:13;8.98;;;4.93;;
4096;SDS011;2062;50.694;7.246;2023-06-19T05:34:40;7.78;;;4.50;;
4096;SDS011;2062;50.694;7.246;2023-06-19T05:37:06;8.30;;;5.15;;
4096;SDS011;2062;50.694;7.246;2023-06-19T05:39:33;7.67;;;4.70;;
4096;SDS011;2062;50.694;7.246;2023-06-19T05:42:01;8.40;;;4.78;;
4096;SDS011;2062;50.694;7.246;2023-06-19T05:44:28;7.93;;;4.45;;
4096;SDS011;2062;50.694;7.246;2023-06-19T05:46:55;9.00;;;4.20;;
4096;SDS011;2062;50.694;7.246;2023-06-19T05:49:22;10.00;;;5.10;;
4096;SDS011;2062;50.694;7.246;2023-06-19T05:51:48;8.27;;;4.27;;
4096;SDS011;2062;50.694;7.246;2023-06-19T05:54:15;8.65;;;4.40;;
4096;SDS011;2062;50.694;7.246;2023-06-19T05:56:42;7.65;;;4.43;;
4096;SDS011;2062;50.694;7.246;2023-06-19T05:59:11;8.35;;;4.53;;
4096;SDS011;2062;50.694;7.246;2023-06-19T06:01:39;8.77;;;4.65;;
4096;SDS011;2062;50.694;7.246;2023-06-19T06:04:06;7.77;;;4.40;;
4096;SDS011;2062;50.694;7.246;2023-06-19T06:06:33;8.75;;;4.53;;
4096;SDS011;2062;50.694;7.246;2023-06-19T06:09:00;8.80;;;5.03;;
4096;SDS011;2062;50.694;7.246;2023-06-19T06:11:26;8.07;;;4.53;;
4096;SDS011;2062;50.694;7.246;2023-06-19T06:13:53;8.05;;;4.35;;
4096;SDS011;2062;50.694;7.246;2023-06-19T06:16:21;7.30;;;4.40;;
4096;SDS011;2062;50.694;7.246;2023-06-19T06:18:48;7.65;;;4.55;;
4096;SDS011;2062;50.694;7.246;2023-06-19T06:21:15;7.35;;;4.15;;
4096;SDS011;2062;50.694;7.246;2023-06-19T06:23:42;7.75;;;4.25;;
4096;SDS011;2062;50.694;7.246;2023-06-19T06:26:10;8.02;;;4.25;;
4096;SDS011;2062;50.694;7.246;2023-06-19T06:28:36;7.17;;;3.80;;
4096;SDS011;2062;50.694;7.246;2023-06-19T06:31:04;6.60;;;3.92;;
4096;SDS011;2062;50.694;7.246;2023-06-19T06:33:32;6.97;;;3.92;;
4096;SDS011;2062;50.694;7.246;2023-06-19T06:35:59;6.00;;;3.33;;
4096;SDS011;2062;50.694;7.246;2023-06-19T06:38:26;8.68;;;3.65;;
4096;SDS011;2062;50.694;7.246;2023-06-19T06:40:53;7.03;;;3.70;;
4096;SDS011;2062;50.694;7.246;2023-06-19T06:43:19;6.93;;;3.60;;
4096;SDS011;2062;50.694;7.246;2023-06-19T06:45:46;7.75;;;3.60;;
4096;SDS011;2062;50.694;7.246;2023-06-19T06:48:13;7.97;;;3.85;;
4096;SDS011;2062;50.694;7.246;2023-06-19T06:50:42;8.15;;;3.58;;
4096;SDS011;2062;50.694;7.246;2023-06-19T06:53:09;5.73;;;2.90;;
4096;SDS011;2062;50.694;7.246;2023-06-19T06:55:36;5.70;;;2.88;;
4096;SDS011;2062;50.694;7.246;2023-06-19T06:58:03;5.82;;;3.08;;
4096;SDS011;2062;50.694;7.246;2023-06-19T07:00:30;5.63;;;2.90;;
4096;SDS011;2062;50.694;7.246;2023-06-19T07:02:57;5.63;;;2.95;;
4096;SDS011;2062;50.694;7.246;2023-06-19T07:05:23;5.63;;;2.37;;
4096;SDS011;2062;50.694;7.246;2023-06-19T07:07:51;6.90;;;2.70;;
4096;SDS011;2062;50.694;7.246;2023-06-19T07:10:18;6.60;;;3.00;;
4096;SDS011;2062;50.694;7.246;2023-06-19T07:12:46;5.68;;;2.97;;
4096;SDS011;2062;50.694;7.246;2023-06-19T07:15:14;5.45;;;2.80;;
4096;SDS011;2062;50.694;7.246;2023-06-19T07:17:40;5.50;;;2.60;;
4096;SDS011;2062;50.694;7.246;2023-06-19T07:20:08;6.32;;;2.70;;
4096;SDS011;2062;50.694;7.246;2023-06-19T07:22:35;6.38;;;2.60;;
4096;SDS011;2062;50.694;7.246;2023-06-19T07:25:05;6.07;;;2.53;;
4096;SDS011;2062;50.694;7.246;2023-06-19T07:27:32;5.43;;;2.67;;
4096;SDS011;2062;50.694;7.246;2023-06-19T07:29:59;5.40;;;2.57;;
4096;SDS011;2062;50.694;7.246;2023-06-19T07:32:26;4.65;;;2.25;;
4096;SDS011;2062;50.694;7.246;2023-06-19T07:34:52;6.30;;;2.90;;
4096;SDS011;2062;50.694;7.246;2023-06-19T07:37:20;4.88;;;2.25;;
4096;SDS011;2062;50.694;7.246;2023-06-19T07:39:47;5.18;;;2.25;;
4096;SDS011;2062;50.694;7.246;2023-06-19T07:42:16;5.03;;;2.30;;
4096;SDS011;2062;50.694;7.246;2023-06-19T07:44:44;5.10;;;2.30;;
4096;SDS011;2062;50.694;7.246;2023-06-19T07:47:12;5.38;;;2.40;;
4096;SDS011;2062;50.694;7.246;2023-06-19T07:49:40;5.25;;;2.55;;
4096;SDS011;2062;50.694;7.246;2023-06-19T07:52:07;6.43;;;3.05;;
4096;SDS011;2062;50.694;7.246;2023-06-19T07:54:35;5.77;;;2.97;;
4096;SDS011;2062;50.694;7.246;2023-06-19T07:57:02;5.93;;;2.92;;
4096;SDS011;2062;50.694;7.246;2023-06-19T07:59:31;6.72;;;3.20;;
4096;SDS011;2062;50.694;7.246;2023-06-19T08:01:57;6.15;;;3.08;;
4096;SDS011;2062;50.694;7.246;2023-06-19T08:04:24;6.53;;;3.55;;
4096;SDS011;2062;50.694;7.246;2023-06-19T08:06:51;6.83;;;2.80;;
4096;SDS011;2062;50.694;7.246;2023-06-19T08:09:18;5.63;;;3.03;;
4096;SDS011;2062;50.694;7.246;2023-06-19T08:11:44;7.40;;;3.20;;
4096;SDS011;2062;50.694;7.246;2023-06-19T08:14:11;6.20;;;3.13;;
4096;SDS011;2062;50.694;7.246;2023-06-19T08:16:39;6.03;;;3.30;;
4096;SDS011;2062;50.694;7.246;2023-06-19T08:19:06;5.40;;;2.93;;
4096;SDS011;2062;50.694;7.246;2023-06-19T08:21:33;6.50;;;3.10;;
4096;SDS011;2062;50.694;7.246;2023-06-19T08:24:00;6.95;;;3.30;;
4096;SDS011;2062;50.694;7.246;2023-06-19T08:26:26;6.70;;;3.20;;
4096;SDS011;2062;50.694;7.246;2023-06-19T08:28:53;6.75;;;3.17;;
4096;SDS011;2062;50.694;7.246;2023-06-19T08:31:20;6.63;;;3.10;;
4096;SDS011;2062;50.694;7.246;2023-06-19T08:33:53;4.93;;;2.42;;
4096;SDS011;2062;50.694;7.246;2023-06-19T08:36:20;5.05;;;2.47;;
4096;SDS011;2062;50.694;7.246;2023-06-19T08:38:47;5.15;;;2.45;;
4096;SDS011;2062;50.694;7.246;2023-06-19T08:41:14;4.97;;;2.00;;
4096;SDS011;2062;50.694;7.246;2023-06-19T08:43:41;5.13;;;2.60;;
4096;SDS011;2062;50.694;7.246;2023-06-19T08:46:10;4.20;;;2.00;;
4096;SDS011;2062;50.694;7.246;2023-06-19T08:48:38;4.13;;;1.90;;
4096;SDS011;2062;50.694;7.246;2023-06-19T08:51:06;4.00;;;1.60;;
4096;SDS011;2062;50.694;7.246;2023-06-19T08:53:34;3.90;;;1.83;;
4096;SDS011;2062;50.694;7.246;2023-06-19T08:56:03;4.63;;;2.00;;
4096;SDS011;2062;50.694;7.246;2023-06-19T08:58:30;4.50;;;1.60;;
4096;SDS011;2062;50.694;7.246;2023-06-19T09:00:57;4.28;;;1.63;;
4096;SDS011;2062;50.694;7.246;2023-06-19T09:03:25;4.60;;;1.60;;
4096;SDS011;2062;50.694;7.246;2023-06-19T09:05:52;3.75;;;1.67;;
4096;SDS011;2062;50.694;7.246;2023-06-19T09:08:20;3.73;;;1.40;;
4096;SDS011;2062;50.694;7.246;2023-06-19T09:10:55;3.42;;;1.30;;
4096;SDS011;2062;50.694;7.246;2023-06-19T09:13:22;4.07;;;1.50;;
4096;SDS011;2062;50.694;7.246;2023-06-19T09:15:56;3.67;;;1.35;;
4096;SDS011;2062;50.694;7.246;2023-06-19T09:18:25;3.60;;;1.70;;
4096;SDS011;2062;50.694;7.246;2023-06-19T09:20:52;4.23;;;1.70;;
4096;SDS011;2062;50.694;7.246;2023-06-19T09:23:21;4.18;;;1.40;;
4096;SDS011;2062;50.694;7.246;2023-06-19T09:25:48;4.65;;;1.75;;
4096;SDS011;2062;50.694;7.246;2023-06-19T09:28:17;3.55;;;1.50;;
4096;SDS011;2062;50.694;7.246;2023-06-19T09:30:51;3.60;;;1.40;;
4096;SDS011;2062;50.694;7.246;2023-06-19T09:33:22;4.33;;;1.57;;
4096;SDS011;2062;50.694;7.246;2023-06-19T09:35:49;3.83;;;1.67;;
4096;SDS011;2062;50.694;7.246;2023-06-19T09:38:17;3.83;;;1.60;;
4096;SDS011;2062;50.694;7.246;2023-06-19T09:40:47;4.95;;;1.70;;
4096;SDS011;2062;50.694;7.246;2023-06-19T09:43:15;4.47;;;1.70;;
4096;SDS011;2062;50.694;7.246;2023-06-19T09:45:46;4.20;;;1.67;;
4096;SDS011;2062;50.694;7.246;2023-06-19T09:48:18;3.92;;;1.63;;
4096;SDS011;2062;50.694;7.246;2023-06-19T09:50:46;4.47;;;2.00;;
4096;SDS011;2062;50.694;7.246;2023-06-19T09:53:16;4.05;;;1.67;;
4096;SDS011;2062;50.694;7.246;2023-06-19T09:55:44;4.65;;;1.95;;
4096;SDS011;2062;50.694;7.246;2023-06-19T09:58:15;4.30;;;1.80;;
4096;SDS011;2062;50.694;7.246;2023-06-19T10:00:42;4.25;;;1.75;;
4096;SDS011;2062;50.694;7.246;2023-06-19T10:03:11;7.95;;;1.80;;
4096;SDS011;2062;50.694;7.246;2023-06-19T10:05:39;4.10;;;1.80;;
4096;SDS011;2062;50.694;7.246;2023-06-19T10:08:06;4.72;;;1.83;;
4096;SDS011;2062;50.694;7.246;2023-06-19T10:10:33;4.43;;;1.80;;
4096;SDS011;2062;50.694;7.246;2023-06-19T10:13:10;3.97;;;1.65;;
4096;SDS011;2062;50.694;7.246;2023-06-19T10:15:40;6.97;;;2.20;;
4096;SDS011;2062;50.694;7.246;2023-06-19T10:18:12;4.50;;;2.10;;
4096;SDS011;2062;50.694;7.246;2023-06-19T10:20:41;4.63;;;2.25;;
4096;SDS011;2062;50.694;7.246;2023-06-19T10:23:10;4.43;;;2.07;;
4096;SDS011;2062;50.694;7.246;2023-06-19T10:25:38;4.13;;;1.80;;
4096;SDS011;2062;50.694;7.246;2023-06-19T10:28:16;4.53;;;2.05;;
4096;SDS011;2062;50.694;7.246;2023-06-19T10:30:44;4.68;;;2.15;;
4096;SDS011;2062;50.694;7.246;2023-06-19T10:33:11;4.28;;;2.17;;
4096;SDS011;2062;50.694;7.246;2023-06-19T10:35:38;9.10;;;2.40;;
4096;SDS011;2062;50.694;7.246;2023-06-19T10:38:06;4.80;;;2.30;;
4096;SDS011;2062;50.694;7.246;2023-06-19T10:40:34;5.25;;;2.17;;
4096;SDS011;2062;50.694;7.246;2023-06-19T10:43:02;4.82;;;2.30;;
4096;SDS011;2062;50.694;7.246;2023-06-19T10:45:30;5.10;;;2.00;;
4096;SDS011;2062;50.694;7.246;2023-06-19T10:47:57;4.90;;;2.47;;
4096;SDS011;2062;50.694;7.246;2023-06-19T10:50:27;4.55;;;1.98;;
4096;SDS011;2062;50.694;7.246;2023-06-19T10:52:54;4.35;;;2.20;;
4096;SDS011;2062;50.694;7.246;2023-06-19T10:55:23;4.85;;;2.33;;
4096;SDS011;2062;50.694;7.246;2023-06-19T10:57:50;4.95;;;2.58;;
4096;SDS011;2062;50.694;7.246;2023-06-19T11:00:23;4.93;;;2.33;;
4096;SDS011;2062;50.694;7.246;2023-06-19T11:02:53;4.80;;;2.20;;
4096;SDS011;2062;50.694;7.246;2023-06-19T11:05:21;4.10;;;1.98;;
4096;SDS011;2062;50.694;7.246;2023-06-19T11:07:54;4.53;;;2.40;;
4096;SDS011;2062;50.694;7.246;2023-06-19T11:10:22;4.55;;;2.47;;
4096;SDS011;2062;50.694;7.246;2023-06-19T11:12:49;4.10;;;2.10;;
4096;SDS011;2062;50.694;7.246;2023-06-19T11:15:19;4.07;;;2.20;;
4096;SDS011;2062;50.694;7.246;2023-06-19T11:17:46;4.82;;;2.30;;
4096;SDS011;2062;50.694;7.246;2023-06-19T11:20:14;6.10;;;2.50;;
4096;SDS011;2062;50.694;7.246;2023-06-19T11:22:41;5.00;;;2.47;;
4096;SDS011;2062;50.694;7.246;2023-06-19T11:25:09;4.77;;;2.37;;
4096;SDS011;2062;50.694;7.246;2023-06-19T11:27:37;4.93;;;2.55;;
4096;SDS011;2062;50.694;7.246;2023-06-19T11:30:06;7.95;;;2.50;;
4096;SDS011;2062;50.694;7.246;2023-06-19T11:32:35;5.10;;;2.47;;
4096;SDS011;2062;50.694;7.246;2023-06-19T11:35:06;5.50;;;2.65;;
4096;SDS011;2062;50.694;7.246;2023-06-19T11:37:35;4.67;;;2.43;;
4096;SDS011;2062;50.694;7.246;2023-06-19T11:40:03;5.05;;;2.15;;
4096;SDS011;2062;50.694;7.246;2023-06-19T11:42:51;5.28;;;2.85;;
4096;SDS011;2062;50.694;7.246;2023-06-19T11:45:18;5.00;;;2.60;;
4096;SDS011;2062;50.694;7.246;2023-06-19T11:47:45;4.78;;;2.65;;
4096;SDS011;2062;50.694;7.246;2023-06-19T11:50:13;5.20;;;2.93;;
4096;SDS011;2062;50.694;7.246;2023-06-19T11:52:42;5.55;;;2.83;;
4096;SDS011;2062;50.694;7.246;2023-06-19T11:55:10;5.88;;;2.70;;
4096;SDS011;2062;50.694;7.246;2023-06-19T11:57:38;4.70;;;2.55;;
4096;SDS011;2062;50.694;7.246;2023-06-19T12:00:11;5.82;;;2.70;;
4096;SDS011;2062;50.694;7.246;2023-06-19T12:02:40;5.30;;;2.83;;
4096;SDS011;2062;50.694;7.246;2023-06-19T12:05:07;4.97;;;2.50;;
4096;SDS011;2062;50.694;7.246;2023-06-19T12:07:34;4.90;;;2.80;;
4096;SDS011;2062;50.694;7.246;2023-06-19T12:10:02;4.88;;;2.55;;
4096;SDS011;2062;50.694;7.246;2023-06-19T12:12:34;5.00;;;2.97;;
4096;SDS011;2062;50.694;7.246;2023-06-19T12:15:01;5.13;;;2.60;;
4096;SDS011;2062;50.694;7.246;2023-06-19T12:17:30;5.13;;;2.70;;
4096;SDS011;2062;50.694;7.246;2023-06-19T12:19:57;5.32;;;2.90;;
4096;SDS011;2062;50.694;7.246;2023-06-19T12:22:24;5.15;;;2.65;;
4096;SDS011;2062;50.694;7.246;2023-06-19T12:24:52;5.55;;;2.55;;
4096;SDS011;2062;50.694;7.246;2023-06-19T12:27:20;4.97;;;2.33;;
4096;SDS011;2062;50.694;7.246;2023-06-19T12:29:47;4.80;;;2.75;;
4096;SDS011;2062;50.694;7.246;2023-06-19T12:32:13;5.28;;;2.60;;
4096;SDS011;2062;50.694;7.246;2023-06-19T12:34:40;5.00;;;2.70;;
4096;SDS011;2062;50.694;7.246;2023-06-19T12:37:11;5.05;;;2.80;;
4096;SDS011;2062;50.694;7.246;2023-06-19T12:39:38;5.43;;;2.90;;
4096;SDS011;2062;50.694;7.246;2023-06-19T12:42:06;4.82;;;2.70;;
4096;SDS011;2062;50.694;7.246;2023-06-19T12:44:34;5.80;;;3.08;;
4096;SDS011;2062;50.694;7.246;2023-06-19T12:47:01;4.47;;;2.60;;
4096;SDS011;2062;50.694;7.246;2023-06-19T12:49:29;5.18;;;2.50;;
4096;SDS011;2062;50.694;7.246;2023-06-19T12:51:56;4.73;;;2.50;;
4096;SDS011;2062;50.694;7.246;2023-06-19T12:54:23;6.00;;;2.78;;
4096;SDS011;2062;50.694;7.246;2023-06-19T12:56:50;4.63;;;2.67;;
4096;SDS011;2062;50.694;7.246;2023-06-19T12:59:17;4.93;;;2.63;;
4096;SDS011;2062;50.694;7.246;2023-06-19T13:01:45;4.85;;;2.45;;
4096;SDS011;2062;50.694;7.246;2023-06-19T13:04:12;4.63;;;2.53;;
4096;SDS011;2062;50.694;7.246;2023-06-19T13:06:40;4.55;;;2.47;;
4096;SDS011;2062;50.694;7.246;2023-06-19T13:09:06;4.95;;;2.60;;
4096;SDS011;2062;50.694;7.246;2023-06-19T13:11:34;5.45;;;2.55;;
4096;SDS011;2062;50.694;7.246;2023-06-19T13:14:01;5.63;;;2.50;;
4096;SDS011;2062;50.694;7.246;2023-06-19T13:16:28;5.37;;;2.70;;
4096;SDS011;2062;50.694;7.246;2023-06-19T13:18:58;4.50;;;2.33;;
4096;SDS011;2062;50.694;7.246;2023-06-19T13:21:24;5.22;;;2.88;;
4096;SDS011;2062;50.694;7.246;2023-06-19T13:23:51;5.18;;;2.90;;
4096;SDS011;2062;50.694;7.246;2023-06-19T13:26:18;4.50;;;2.58;;
4096;SDS011;2062;50.694;7.246;2023-06-19T13:28:45;5.27;;;2.20;;
4096;SDS011;2062;50.694;7.246;2023-06-19T13:31:12;4.60;;;2.53;;
4096;SDS011;2062;50.694;7.246;2023-06-19T13:33:39;4.82;;;2.58;;
4096;SDS011;2062;50.694;7.246;2023-06-19T13:36:07;4.15;;;2.22;;
4096;SDS011;2062;50.694;7.246;2023-06-19T13:38:34;5.10;;;2.70;;
4096;SDS011;2062;50.694;7.246;2023-06-19T13:41:01;4.50;;;2.50;;
4096;SDS011;2062;50.694;7.246;2023-06-19T13:43:27;4.68;;;2.60;;
4096;SDS011;2062;50.694;7.246;2023-06-19T13:45:54;4.72;;;2.50;;
4096;SDS011;2062;50.694;7.246;2023-06-19T13:48:21;5.10;;;2.85;;
4096;SDS011;2062;50.694;7.246;2023-06-19T13:50:48;4.90;;;2.63;;
4096;SDS011;2062;50.694;7.246;2023-06-19T13:53:16;5.43;;;2.60;;
4096;SDS011;2062;50.694;7.246;2023-06-19T13:55:42;4.53;;;2.50;;
4096;SDS011;2062;50.694;7.246;2023-06-19T13:58:09;4.90;;;2.60;;
4096;SDS011;2062;50.694;7.246;2023-06-19T14:00:36;4.90;;;2.50;;
4096;SDS011;2062;50.694;7.246;2023-06-19T14:03:04;5.63;;;2.70;;
4096;SDS011;2062;50.694;7.246;2023-06-19T14:05:32;6.20;;;2.93;;
4096;SDS011;2062;50.694;7.246;2023-06-19T14:07:59;4.82;;;2.38;;
4096;SDS011;2062;50.694;7.246;2023-06-19T14:10:27;5.18;;;2.83;;
4096;SDS011;2062;50.694;7.246;2023-06-19T14:12:54;4.82;;;2.60;;
4096;SDS011;2062;50.694;7.246;2023-06-19T14:15:21;4.95;;;2.80;;
4096;SDS011;2062;50.694;7.246;2023-06-19T14:17:48;5.23;;;2.80;;
4096;SDS011;2062;50.694;7.246;2023-06-19T14:20:14;5.30;;;2.90;;
4096;SDS011;2062;50.694;7.246;2023-06-19T14:22:41;6.55;;;3.13;;
4096;SDS011;2062;50.694;7.246;2023-06-19T14:25:08;4.82;;;2.60;;
4096;SDS011;2062;50.694;7.246;2023-06-19T14:27:36;5.05;;;3.08;;
4096;SDS011;2062;50.694;7.246;2023-06-19T14:30:04;4.73;;;2.73;;
4096;SDS011;2062;50.694;7.246;2023-06-19T14:32:33;5.53;;;2.97;;
4096;SDS011;2062;50.694;7.246;2023-06-19T14:35:01;4.88;;;3.00;;
4096;SDS011;2062;50.694;7.246;2023-06-19T14:37:27;5.25;;;2.92;;
4096;SDS011;2062;50.694;7.246;2023-06-19T14:39:54;7.22;;;2.80;;
4096;SDS011;2062;50.694;7.246;2023-06-19T14:42:21;4.80;;;2.67;;
4096;SDS011;2062;50.694;7.246;2023-06-19T14:44:49;5.00;;;2.60;;
4096;SDS011;2062;50.694;7.246;2023-06-19T14:47:16;5.47;;;2.92;;
4096;SDS011;2062;50.694;7.246;2023-06-19T14:49:43;6.07;;;3.28;;
4096;SDS011;2062;50.694;7.246;2023-06-19T14:52:10;5.00;;;2.65;;
4096;SDS011;2062;50.694;7.246;2023-06-19T14:54:36;5.00;;;2.90;;
4096;SDS011;2062;50.694;7.246;2023-06-19T14:57:03;4.90;;;2.75;;
4096;SDS011;2062;50.694;7.246;2023-06-19T14:59:31;5.95;;;2.95;;
4096;SDS011;2062;50.694;7.246;2023-06-19T15:01:59;5.28;;;2.80;;
4096;SDS011;2062;50.694;7.246;2023-06-19T15:04:27;5.22;;;3.08;;
4096;SDS011;2062;50.694;7.246;2023-06-19T15:06:54;5.63;;;2.70;;
4096;SDS011;2062;50.694;7.246;2023-06-19T15:09:21;5.95;;;3.00;;
4096;SDS011;2062;50.694;7.246;2023-06-19T15:11:47;4.75;;;2.70;;
4096;SDS011;2062;50.694;7.246;2023-06-19T15:14:14;4.47;;;2.50;;
4096;SDS011;2062;50.694;7.246;2023-06-19T15:16:42;6.65;;;2.90;;